Time;durP1;ratioP1;P1;durP2;ratioP2;P2;SDS_P1;SDS_P2;PMS_P1;PMS_P2;Temp;Humidity;BMP_temperature;BMP_pressure;BME280_temperature;BME280_humidity;BME280_pressure;Samples;Min_cycle;Max_cycle;Signal;HPM_P1;HPM_P2
2021/01/19 00:01:30;;;;;;;30.55;18.35;;;;;;;3.74;95.88;101309.72;6248831;28;20049;-73
2021/01/19 00:04:31;;;;;;;37.40;18.25;;;;;;;3.70;95.77;101311.50;6249845;28;20054;-74
2021/01/19 00:07:31;;;;;;;37.30;17.48;;;;;;;3.80;95.96;101310.47;6250323;28;20136;-73
2021/01/19 00:10:32;;;;;;;30.75;16.88;;;;;;;3.92;95.54;101308.56;6249509;28;20081;-73
2021/01/19 00:13:34;;;;;;;30.92;17.52;;;;;;;3.75;95.36;101306.25;6249538;28;20050;-74
2021/01/19 00:16:35;;;;;;;36.60;17.52;;;;;;;3.68;95.99;101297.69;6249379;28;20053;-73
2021/01/19 00:19:36;;;;;;;30.60;17.75;;;;;;;3.70;96.16;101293.31;6249189;28;20465;-73
2021/01/19 00:22:37;;;;;;;35.47;17.30;;;;;;;3.79;95.85;101290.56;6239902;28;20050;-74
2021/01/19 00:25:37;;;;;;;34.30;17.58;;;;;;;3.68;95.73;101296.81;6225055;28;20053;-73
2021/01/19 00:28:39;;;;;;;33.55;19.50;;;;;;;3.61;96.73;101290.00;6223955;28;20045;-74
2021/01/19 00:31:40;;;;;;;32.85;18.48;;;;;;;3.59;97.36;101291.75;6229762;28;20053;-73
2021/01/19 00:34:41;;;;;;;33.70;18.60;;;;;;;3.53;97.42;101278.00;6249081;28;20049;-73
2021/01/19 00:37:42;;;;;;;32.13;19.60;;;;;;;3.75;97.45;101272.44;6248810;28;20049;-74
2021/01/19 00:40:43;;;;;;;36.47;18.98;;;;;;;3.58;98.04;101277.06;6248640;28;20509;-73
2021/01/19 00:43:44;;;;;;;45.17;19.92;;;;;;;3.62;98.05;101271.78;6249136;28;20544;-74
2021/01/19 00:46:45;;;;;;;34.20;18.17;;;;;;;3.55;98.74;101268.44;6248389;28;20045;-74
2021/01/19 00:49:46;;;;;;;41.60;21.25;;;;;;;3.51;99.48;101263.31;6248697;28;20049;-74
2021/01/19 00:52:47;;;;;;;41.60;20.42;;;;;;;3.50;99.82;101252.06;6247984;28;20045;-74
2021/01/19 00:55:48;;;;;;;42.92;21.65;;;;;;;3.50;99.65;101249.47;6248607;28;20049;-74
2021/01/19 00:58:49;;;;;;;42.63;22.17;;;;;;;3.44;100.00;101235.72;6247269;28;20486;-74
2021/01/19 01:01:50;;;;;;;40.40;22.25;;;;;;;3.60;100.00;101239.78;6249666;28;20053;-73
2021/01/19 01:04:51;;;;;;;40.05;22.30;;;;;;;3.56;100.00;101228.56;6248593;28;20115;-74
2021/01/19 01:07:52;;;;;;;44.13;23.33;;;;;;;3.50;100.00;101222.63;6248085;28;20045;-74
2021/01/19 01:10:53;;;;;;;43.85;23.08;;;;;;;3.51;100.00;101222.59;6247824;28;20045;-74
2021/01/19 01:13:54;;;;;;;40.33;22.38;;;;;;;3.51;100.00;101226.94;6248308;28;20498;-73
2021/01/19 01:16:55;;;;;;;44.25;23.42;;;;;;;3.52;100.00;101208.72;6248111;28;20095;-74
2021/01/19 01:19:56;;;;;;;41.63;23.05;;;;;;;3.51;100.00;101200.97;6247644;28;20046;-74
2021/01/19 01:22:57;;;;;;;46.88;23.00;;;;;;;3.58;99.83;101199.97;6247529;28;20065;-73
2021/01/19 01:25:58;;;;;;;41.85;22.95;;;;;;;3.58;99.65;101206.91;6247796;28;20053;-74
2021/01/19 01:29:00;;;;;;;42.22;21.48;;;;;;;3.67;98.62;101198.94;6247514;28;20053;-74
2021/01/19 01:32:01;;;;;;;40.78;23.17;;;;;;;3.59;99.36;101212.09;6248018;28;20061;-74
2021/01/19 01:35:01;;;;;;;38.38;22.23;;;;;;;3.58;99.10;101191.31;6248642;28;20084;-74
2021/01/19 01:38:02;;;;;;;40.55;22.05;;;;;;;3.66;98.28;101192.03;6247283;28;20045;-74
2021/01/19 01:41:11;;;;;;;38.70;21.70;;;;;;;3.67;98.60;101188.53;6247228;28;20056;-73
2021/01/19 01:44:12;;;;;;;39.22;22.52;;;;;;;3.66;98.54;101176.44;6247809;28;20045;-74
2021/01/19 01:47:20;;;;;;;40.80;22.45;;;;;;;3.60;98.63;101174.81;6247026;28;20054;-73
2021/01/19 01:50:21;;;;;;;41.40;21.30;;;;;;;3.63;98.12;101173.88;6247329;28;20057;-73
2021/01/19 01:53:22;;;;;;;39.10;20.10;;;;;;;3.63;98.35;101166.09;6246419;28;20052;-73
2021/01/19 01:56:23;;;;;;;42.97;21.58;;;;;;;3.80;97.12;101164.91;6247112;28;20432;-73
2021/01/19 01:59:25;;;;;;;45.22;22.13;;;;;;;3.68;97.88;101156.47;6245866;28;20453;-73
2021/01/19 02:02:26;;;;;;;40.05;20.55;;;;;;;3.73;97.59;101145.13;6255948;28;20056;-73
2021/01/19 02:05:27;;;;;;;34.45;20.85;;;;;;;3.77;97.44;101138.97;6271951;28;20502;-73
2021/01/19 02:08:42;;;;;;;43.63;20.70;;;;;;;3.75;97.58;101129.50;6271245;28;20049;-73
2021/01/19 02:11:50;;;;;;;32.70;19.00;;;;;;;3.83;97.17;101126.75;6271932;28;20056;-73
2021/01/19 02:15:00;;;;;;;32.65;19.10;;;;;;;3.90;97.00;101126.56;6271509;28;20461;-73
2021/01/19 02:18:11;;;;;;;29.77;18.00;;;;;;;3.94;96.40;101124.78;6271430;28;20049;-73
2021/01/19 02:21:55;;;;;;;38.55;20.35;;;;;;;3.81;96.37;101122.44;6256747;28;20053;-73
2021/01/19 02:25:10;;;;;;;38.25;17.95;;;;;;;3.88;96.00;101114.50;6152185;28;20059;-73
2021/01/19 02:28:23;;;;;;;35.67;17.92;;;;;;;3.86;96.20;101105.88;6221692;28;20133;-73
2021/01/19 02:32:01;;;;;;;39.67;19.00;;;;;;;3.85;96.34;101098.97;6221959;28;20552;-73
2021/01/19 02:35:10;;;;;;;32.80;17.67;;;;;;;4.13;95.55;101096.66;6203274;28;20050;-74
2021/01/19 02:38:22;;;;;;;38.60;21.70;;;;;;;3.85;95.77;101088.56;6221591;28;20053;-74
2021/01/19 02:41:24;;;;;;;37.13;18.58;;;;;;;3.93;96.25;101084.06;6221785;28;20058;-74
2021/01/19 02:44:26;;;;;;;36.88;18.92;;;;;;;3.86;96.20;101079.88;6222008;28;20419;-73
2021/01/19 02:47:28;;;;;;;35.30;19.30;;;;;;;3.95;95.24;101075.38;6221522;28;20054;-74
2021/01/19 02:50:29;;;;;;;30.02;18.23;;;;;;;3.86;95.88;101072.06;6221951;28;20414;-74
2021/01/19 02:53:30;;;;;;;38.85;19.67;;;;;;;4.02;95.19;101063.94;6221994;28;20054;-74
2021/01/19 02:56:38;;;;;;;33.15;18.73;;;;;;;3.95;95.64;101061.50;6221501;28;20076;-74
2021/01/19 02:59:50;;;;;;;30.67;18.98;;;;;;;4.08;95.09;101056.00;6221408;28;20045;-74
2021/01/19 03:02:53;;;;;;;35.90;19.20;;;;;;;3.90;95.90;101043.38;6250243;28;20083;-74
2021/01/19 03:05:55;;;;;;;34.75;18.65;;;;;;;3.87;95.90;101037.41;6270606;28;20056;-74
2021/01/19 03:08:58;;;;;;;36.15;20.70;;;;;;;3.89;95.62;101038.22;6270481;28;20057;-75
2021/01/19 03:12:00;;;;;;;41.38;18.83;;;;;;;3.87;95.90;101032.22;6270960;28;20539;-74
2021/01/19 03:15:01;;;;;;;32.38;18.33;;;;;;;4.02;95.52;101030.13;6270810;28;20509;-74
2021/01/19 03:18:04;;;;;;;29.27;17.58;;;;;;;4.14;95.16;101020.38;6270399;28;20052;-75
2021/01/19 03:21:06;;;;;;;28.58;17.48;;;;;;;3.96;95.06;101021.63;6251581;28;20050;-74
2021/01/19 03:24:07;;;;;;;29.90;16.92;;;;;;;4.13;94.85;101023.84;6226369;28;20042;-74
2021/01/19 03:27:09;;;;;;;36.65;16.65;;;;;;;3.96;94.72;101012.06;6226007;28;20053;-74
2021/01/19 03:30:11;;;;;;;29.45;16.80;;;;;;;4.20;94.65;101007.22;6225790;28;20042;-75
2021/01/19 03:33:13;;;;;;;36.22;17.38;;;;;;;4.03;94.57;101002.38;6241634;28;20057;-74
2021/01/19 03:36:13;;;;;;;27.60;17.17;;;;;;;4.06;95.58;100987.56;6250332;28;20060;-74
2021/01/19 03:39:14;;;;;;;32.97;17.95;;;;;;;4.02;96.26;100970.31;6249979;28;20450;-74
2021/01/19 03:42:15;;;;;;;28.58;17.15;;;;;;;3.86;97.18;100968.09;6249977;28;20126;-75
2021/01/19 03:45:16;;;;;;;28.30;16.88;;;;;;;3.84;98.09;100957.75;6250491;28;20050;-74
2021/01/19 03:48:18;;;;;;;38.80;17.45;;;;;;;3.86;98.25;100948.19;6249945;28;20046;-75
2021/01/19 03:51:20;;;;;;;28.48;17.10;;;;;;;3.78;98.45;100937.09;6249188;28;20049;-74
2021/01/19 03:54:21;;;;;;;28.75;17.35;;;;;;;3.77;98.73;100933.66;6250292;28;20457;-74
2021/01/19 03:57:21;;;;;;;28.33;17.98;;;;;;;3.72;99.03;100921.63;6249838;28;20096;-74
2021/01/19 04:00:23;;;;;;;34.55;19.42;;;;;;;3.62;100.00;100927.91;6248754;28;20399;-74
2021/01/19 04:03:24;;;;;;;33.45;18.42;;;;;;;3.71;100.00;100930.31;6261552;28;20049;-74
2021/01/19 04:06:25;;;;;;;29.63;17.48;;;;;;;3.84;100.00;100923.09;6274369;28;20103;-74
2021/01/19 04:09:26;;;;;;;28.95;18.73;;;;;;;3.67;100.00;100913.91;6273996;28;20045;-74
2021/01/19 04:12:27;;;;;;;31.73;18.67;;;;;;;3.70;100.00;100900.00;6272705;28;20488;-74
2021/01/19 04:15:27;;;;;;;30.92;17.15;;;;;;;3.70;100.00;100897.41;6249593;28;20061;-75
2021/01/19 04:18:29;;;;;;;34.15;17.92;;;;;;;3.69;100.00;100878.38;6249084;28;20056;-74
2021/01/19 04:21:32;;;;;;;27.98;17.52;;;;;;;3.65;100.00;100879.34;6248413;28;20053;-74
2021/01/19 04:24:33;;;;;;;32.33;17.23;;;;;;;3.82;100.00;100876.34;6249635;28;20486;-74
2021/01/19 04:27:34;;;;;;;45.03;20.15;;;;;;;3.77;100.00;100871.25;6249112;28;20099;-74
2021/01/19 04:30:35;;;;;;;37.10;18.73;;;;;;;3.65;100.00;100868.09;6249846;28;20046;-74
2021/01/19 04:33:36;;;;;;;36.88;17.80;;;;;;;3.85;100.00;100860.66;6248039;28;20097;-74
2021/01/19 04:36:37;;;;;;;31.10;16.60;;;;;;;3.83;100.00;100846.00;6248535;28;20049;-74
2021/01/19 04:39:38;;;;;;;34.05;16.98;;;;;;;3.83;100.00;100831.25;6248987;28;20132;-74
2021/01/19 04:42:39;;;;;;;32.35;16.48;;;;;;;3.68;100.00;100819.50;6248940;28;20399;-75
2021/01/19 04:45:40;;;;;;;35.38;15.48;;;;;;;3.70;100.00;100824.66;6249060;28;20053;-74
2021/01/19 04:48:44;;;;;;;31.77;14.60;;;;;;;3.71;100.00;100816.81;6249224;28;20044;-75
2021/01/19 04:51:47;;;;;;;36.55;14.82;;;;;;;3.59;100.00;100817.13;6248131;28;20072;-74
2021/01/19 04:55:02;;;;;;;28.85;13.05;;;;;;;3.64;100.00;100811.81;6248734;28;20053;-75
2021/01/19 04:58:06;;;;;;;20.98;9.90;;;;;;;3.73;99.62;100791.66;6248562;28;20049;-75
2021/01/19 05:01:08;;;;;;;27.10;11.60;;;;;;;3.60;99.78;100794.59;6248340;28;20077;-74
2021/01/19 05:04:42;;;;;;;25.10;10.02;;;;;;;3.62;98.30;100785.84;6248795;28;20057;-75
2021/01/19 05:08:04;;;;;;;19.73;7.75;;;;;;;3.67;98.26;100772.75;6243031;28;20050;-74
2021/01/19 05:11:13;;;;;;;18.80;7.95;;;;;;;3.59;99.28;100774.66;6248072;28;20057;-74
2021/01/19 05:14:18;;;;;;;16.35;7.00;;;;;;;3.61;98.00;100765.97;6249435;28;20057;-74
2021/01/19 05:17:23;;;;;;;14.52;6.32;;;;;;;3.62;98.06;100749.47;6247423;28;20069;-73
2021/01/19 05:20:30;;;;;;;14.20;6.28;;;;;;;3.62;97.67;100741.66;6246621;28;20104;-73
2021/01/19 05:23:32;;;;;;;18.67;6.00;;;;;;;3.83;96.84;100723.84;6247797;28;20545;-74
2021/01/19 05:26:34;;;;;;;18.85;6.15;;;;;;;3.60;96.88;100720.09;6247355;28;20053;-74
2021/01/19 05:29:35;;;;;;;13.57;5.88;;;;;;;3.65;96.60;100714.78;6247606;28;20128;-74
2021/01/19 05:32:40;;;;;;;17.00;7.03;;;;;;;3.75;96.61;100698.03;6247698;28;20053;-74
2021/01/19 05:35:41;;;;;;;14.20;6.38;;;;;;;3.61;97.56;100695.81;6247723;28;20498;-73
2021/01/19 05:38:47;;;;;;;11.60;6.35;;;;;;;3.69;96.88;100691.25;6248331;23;519001;-71
2021/01/19 05:41:49;;;;;;;12.80;5.57;;;;;;;3.62;96.00;100681.91;6247241;28;20057;-71
2021/01/19 05:44:50;;;;;;;13.82;7.25;;;;;;;3.54;97.36;100676.03;6248273;28;20144;-72
2021/01/19 05:47:51;;;;;;;12.35;5.53;;;;;;;3.70;96.28;100672.16;6247203;28;20057;-72
2021/01/19 05:50:56;;;;;;;10.90;5.25;;;;;;;3.64;96.95;100668.91;6246525;28;20143;-71
2021/01/19 05:53:59;;;;;;;18.58;4.95;;;;;;;3.63;96.62;100656.78;6247433;28;20045;-72
2021/01/19 05:57:02;;;;;;;14.40;4.80;;;;;;;3.53;96.18;100646.63;6246857;28;20075;-72
2021/01/19 06:00:05;;;;;;;23.38;5.50;;;;;;;3.48;98.08;100637.25;6246776;28;20049;-72
2021/01/19 06:03:15;;;;;;;11.80;4.25;;;;;;;3.58;97.77;100643.06;6247333;28;20111;-72
2021/01/19 06:06:19;;;;;;;13.07;3.95;;;;;;;3.59;97.42;100630.03;6246879;28;20056;-71
2021/01/19 06:09:23;;;;;;;11.88;4.32;;;;;;;3.47;98.24;100630.34;6246491;28;20046;-73
2021/01/19 06:12:34;;;;;;;9.48;3.63;;;;;;;3.35;99.33;100621.13;6246976;28;20049;-73
2021/01/19 06:15:35;;;;;;;12.82;3.90;;;;;;;3.46;98.79;100618.25;6248339;28;20060;-73
2021/01/19 06:18:36;;;;;;;18.58;4.30;;;;;;;3.42;99.62;100606.25;6245653;28;20041;-73
2021/01/19 06:21:37;;;;;;;10.93;3.63;;;;;;;3.36;99.58;100601.19;6246993;28;20136;-73
2021/01/19 06:24:41;;;;;;;9.38;3.15;;;;;;;3.28;100.00;100593.63;6246776;28;20103;-73
2021/01/19 06:27:42;;;;;;;17.40;3.83;;;;;;;3.31;100.00;100583.13;6246233;28;20049;-73
2021/01/19 06:30:42;;;;;;;14.38;3.25;;;;;;;3.26;100.00;100580.66;6246356;28;20056;-71
2021/01/19 06:33:47;;;;;;;10.23;2.88;;;;;;;3.34;100.00;100582.22;6246534;28;20494;-72
2021/01/19 06:36:48;;;;;;;15.75;2.80;;;;;;;3.35;100.00;100560.53;6246236;28;20053;-72
2021/01/19 06:39:55;;;;;;;11.85;3.55;;;;;;;3.18;100.00;100556.66;6245913;28;20052;-72
2021/01/19 06:42:58;;;;;;;7.95;2.85;;;;;;;3.16;100.00;100557.56;6246772;28;20049;-72
2021/01/19 06:46:06;;;;;;;10.73;2.90;;;;;;;3.11;100.00;100557.69;6247193;28;20049;-72
2021/01/19 06:49:12;;;;;;;13.70;3.40;;;;;;;3.19;100.00;100539.34;6245762;28;20052;-72
2021/01/19 06:52:15;;;;;;;10.07;2.58;;;;;;;3.21;100.00;100538.38;6246510;28;20104;-73
2021/01/19 06:55:23;;;;;;;9.60;3.33;;;;;;;3.14;100.00;100526.47;6246489;28;20056;-72
2021/01/19 06:58:49;;;;;;;12.55;2.40;;;;;;;3.26;100.00;100509.69;6251170;28;20060;-73
2021/01/19 07:01:57;;;;;;;9.27;2.50;;;;;;;3.13;100.00;100516.94;6221026;28;20117;-73
2021/01/19 07:05:08;;;;;;;12.50;2.95;;;;;;;3.14;100.00;100510.91;6226807;28;20115;-73
2021/01/19 07:08:38;;;;;;;16.88;2.92;;;;;;;3.23;100.00;100512.41;6232450;28;20056;-71
2021/01/19 07:12:07;;;;;;;13.90;2.83;;;;;;;3.21;100.00;100512.41;6251149;28;20050;-71
2021/01/19 07:15:11;;;;;;;15.57;2.58;;;;;;;3.09;100.00;100504.97;6251293;28;20095;-72
2021/01/19 07:18:23;;;;;;;15.00;3.13;;;;;;;3.02;100.00;100506.88;6251420;28;20483;-73
2021/01/19 07:21:33;;;;;;;18.00;3.10;;;;;;;3.16;100.00;100492.66;6250656;28;20053;-72
2021/01/19 07:24:38;;;;;;;10.27;2.40;;;;;;;3.17;100.00;100486.56;6251077;28;20049;-73
2021/01/19 07:27:40;;;;;;;14.75;2.15;;;;;;;3.16;100.00;100472.75;6250523;28;20059;-73
2021/01/19 07:30:41;;;;;;;15.30;3.15;;;;;;;3.07;100.00;100478.19;6250429;28;20053;-73
2021/01/19 07:33:45;;;;;;;10.77;2.47;;;;;;;3.11;100.00;100468.56;6250526;28;20133;-73
2021/01/19 07:36:53;;;;;;;8.55;2.83;;;;;;;3.05;100.00;100469.59;6250619;28;20053;-73
2021/01/19 07:39:54;;;;;;;11.40;2.75;;;;;;;3.14;100.00;100460.72;6250001;28;20091;-73
2021/01/19 07:42:55;;;;;;;11.48;2.78;;;;;;;3.10;100.00;100451.31;6250663;28;20049;-74
2021/01/19 07:45:56;;;;;;;6.07;2.40;;;;;;;3.07;100.00;100456.56;6256029;28;20056;-73
2021/01/19 07:49:01;;;;;;;8.20;2.50;;;;;;;3.02;100.00;100439.38;6259516;28;20053;-74
2021/01/19 07:52:09;;;;;;;6.55;2.45;;;;;;;3.02;100.00;100438.53;6250254;28;20057;-74
2021/01/19 07:55:15;;;;;;;13.90;3.45;;;;;;;2.98;100.00;100429.97;6249994;28;20045;-74
2021/01/19 07:58:19;;;;;;;11.90;2.65;;;;;;;3.11;100.00;100421.84;6249795;28;20046;-73
2021/01/19 08:01:24;;;;;;;13.73;2.97;;;;;;;3.19;100.00;100412.94;6261318;28;20058;-73
2021/01/19 08:04:29;;;;;;;13.13;3.53;;;;;;;3.10;100.00;100410.63;6250003;28;20053;-74
2021/01/19 08:07:41;;;;;;;9.15;3.20;;;;;;;3.13;100.00;100396.69;6249285;28;20054;-74
2021/01/19 08:10:53;;;;;;;11.23;2.75;;;;;;;3.08;100.00;100401.16;6249333;28;20049;-73
2021/01/19 08:13:58;;;;;;;8.48;3.17;;;;;;;3.14;100.00;100391.47;6249614;28;20137;-73
2021/01/19 08:17:03;;;;;;;11.55;2.58;;;;;;;3.28;100.00;100385.88;6249084;28;20045;-73
2021/01/19 08:20:07;;;;;;;10.43;3.95;;;;;;;3.22;100.00;100378.25;6249000;28;20095;-74
2021/01/19 08:23:11;;;;;;;11.02;2.67;;;;;;;3.21;100.00;100381.75;6249618;28;20049;-74
2021/01/19 08:26:11;;;;;;;6.03;2.63;;;;;;;3.24;100.00;100373.88;6249093;28;20668;-73
2021/01/19 08:29:17;;;;;;;6.18;2.38;;;;;;;3.29;100.00;100361.59;6248930;28;20050;-72
2021/01/19 08:32:20;;;;;;;12.40;3.33;;;;;;;3.30;100.00;100356.34;6248998;28;20072;-74
2021/01/19 08:35:22;;;;;;;10.15;4.72;;;;;;;3.26;100.00;100353.88;6247912;28;20058;-76
2021/01/19 08:38:24;;;;;;;10.07;3.05;;;;;;;3.36;100.00;100355.34;6238574;28;20049;-74
2021/01/19 08:41:25;;;;;;;11.20;2.63;;;;;;;3.21;100.00;100355.78;6247983;28;20052;-75
2021/01/19 08:44:27;;;;;;;9.32;2.90;;;;;;;3.22;100.00;100352.28;6248516;28;20057;-75
2021/01/19 08:47:31;;;;;;;9.23;3.05;;;;;;;3.21;100.00;100353.19;6247856;28;20049;-75
2021/01/19 08:50:35;;;;;;;12.52;3.42;;;;;;;3.28;100.00;100344.31;6248196;28;20056;-75
2021/01/19 08:53:37;;;;;;;9.50;3.70;;;;;;;3.30;100.00;100342.50;6248927;28;20049;-75
2021/01/19 08:56:39;;;;;;;10.27;3.22;;;;;;;3.30;100.00;100339.91;6248514;28;20056;-74
2021/01/19 08:59:50;;;;;;;8.15;3.42;;;;;;;3.33;100.00;100339.00;6248050;28;20111;-75
2021/01/19 09:02:52;;;;;;;12.20;3.47;;;;;;;3.24;100.00;100334.91;6249827;28;20135;-76
2021/01/19 09:06:00;;;;;;;7.85;3.20;;;;;;;3.32;100.00;100322.56;6247407;28;20428;-75
2021/01/19 09:09:01;;;;;;;9.60;3.00;;;;;;;3.46;100.00;100320.38;6245093;28;20041;-75
2021/01/19 09:12:03;;;;;;;7.25;3.53;;;;;;;3.34;100.00;100320.75;6249584;28;20046;-75
2021/01/19 09:15:06;;;;;;;14.82;4.03;;;;;;;3.24;100.00;100317.59;6247473;28;20122;-75
2021/01/19 09:18:11;;;;;;;14.57;4.72;;;;;;;3.37;100.00;100314.63;6246505;28;20049;-76
2021/01/19 09:21:12;;;;;;;11.18;4.35;;;;;;;3.22;100.00;100303.78;6251764;28;20140;-74
2021/01/19 09:24:14;;;;;;;11.82;3.83;;;;;;;3.34;100.00;100291.34;6248068;28;20050;-74
2021/01/19 09:27:18;;;;;;;5.47;3.10;;;;;;;3.36;100.00;100292.13;6247734;28;20052;-75
2021/01/19 09:30:20;;;;;;;8.52;3.40;;;;;;;3.29;100.00;100278.50;6252605;28;20044;-74
2021/01/19 09:33:30;;;;;;;7.43;3.30;;;;;;;3.29;100.00;100279.34;6247761;28;20426;-74
2021/01/19 09:36:37;;;;;;;8.20;3.42;;;;;;;3.28;100.00;100282.84;6248273;28;20481;-73
2021/01/19 09:39:39;;;;;;;10.02;3.60;;;;;;;3.33;100.00;100267.13;6247899;28;20046;-73
2021/01/19 09:42:41;;;;;;;7.82;3.10;;;;;;;3.37;100.00;100273.09;6272279;28;20132;-72
2021/01/19 09:45:43;;;;;;;9.32;3.20;;;;;;;3.52;100.00;100257.84;6265536;28;20052;-73
2021/01/19 09:48:46;;;;;;;6.05;2.72;;;;;;;3.38;100.00;100260.03;6247621;28;20045;-74
2021/01/19 09:51:47;;;;;;;5.00;2.25;;;;;;;3.41;100.00;100254.75;6247221;28;20073;-75
2021/01/19 09:54:48;;;;;;;4.97;2.38;;;;;;;3.48;100.00;100237.22;6247334;28;20123;-74
2021/01/19 09:57:58;;;;;;;5.53;2.20;;;;;;;3.39;100.00;100235.75;6246797;28;20053;-74
2021/01/19 10:00:59;;;;;;;4.95;2.55;;;;;;;3.50;100.00;100238.88;6248952;28;20080;-74
2021/01/19 10:04:00;;;;;;;4.72;2.10;;;;;;;3.42;100.00;100240.84;6247058;28;20103;-74
2021/01/19 10:07:03;;;;;;;6.05;1.75;;;;;;;3.50;100.00;100225.03;6246720;28;20445;-74
2021/01/19 10:10:09;;;;;;;3.42;2.28;;;;;;;3.38;100.00;100226.28;6246487;28;20056;-75
2021/01/19 10:13:10;;;;;;;7.68;2.20;;;;;;;3.44;100.00;100220.03;6246520;28;20057;-74
2021/01/19 10:16:12;;;;;;;6.38;1.70;;;;;;;3.39;100.00;100214.97;6246898;28;20403;-75
2021/01/19 10:19:19;;;;;;;2.33;1.60;;;;;;;3.41;100.00;100195.03;6245637;28;20512;-74
2021/01/19 10:22:25;;;;;;;5.30;2.30;;;;;;;3.51;100.00;100199.00;6243626;28;20175;-75
2021/01/19 10:25:28;;;;;;;3.22;1.90;;;;;;;3.52;100.00;100189.47;6246389;28;20119;-75
2021/01/19 10:28:29;;;;;;;8.77;2.72;;;;;;;3.51;100.00;100179.97;6257073;28;20925;-74
2021/01/19 10:31:46;;;;;;;3.45;2.10;;;;;;;3.42;100.00;100170.72;6245855;28;20049;-74
2021/01/19 10:34:48;;;;;;;6.32;2.63;;;;;;;3.49;100.00;100163.56;6242469;28;20391;-75
2021/01/19 10:37:52;;;;;;;5.90;2.40;;;;;;;3.45;100.00;100160.25;6246035;28;20045;-75
2021/01/19 10:40:53;;;;;;;6.75;2.80;;;;;;;3.37;100.00;100159.66;6245665;28;20111;-74
2021/01/19 10:43:55;;;;;;;7.75;3.08;;;;;;;3.44;100.00;100150.75;6258265;28;20140;-74
2021/01/19 10:46:58;;;;;;;3.40;2.00;;;;;;;3.47;100.00;100147.22;6248226;28;20050;-76
2021/01/19 10:50:11;;;;;;;6.05;2.28;;;;;;;3.44;100.00;100148.16;6264900;28;20076;-75
2021/01/19 10:53:11;;;;;;;4.13;2.30;;;;;;;3.54;100.00;100135.69;6268797;28;20080;-75
2021/01/19 10:56:15;;;;;;;4.60;1.95;;;;;;;3.67;100.00;100128.31;6246832;28;20077;-74
2021/01/19 10:59:16;;;;;;;2.47;1.80;;;;;;;3.65;100.00;100122.34;6249119;28;20056;-74
2021/01/19 11:02:18;;;;;;;4.35;1.80;;;;;;;3.81;100.00;100120.88;6249704;28;20053;-75
2021/01/19 11:05:20;;;;;;;4.03;2.30;;;;;;;3.86;100.00;100113.81;6235375;28;20054;-74
2021/01/19 11:08:21;;;;;;;3.45;1.77;;;;;;;3.78;100.00;100106.28;6231440;28;20054;-74
2021/01/19 11:11:21;;;;;;;5.10;1.67;;;;;;;3.73;100.00;100107.34;6245555;28;20494;-75
2021/01/19 11:14:22;;;;;;;7.30;2.65;;;;;;;3.67;100.00;100108.38;6256914;28;20064;-75
2021/01/19 11:17:25;;;;;;;6.43;2.47;;;;;;;3.65;100.00;100101.56;6249902;28;20502;-75
2021/01/19 11:20:27;;;;;;;3.67;2.42;;;;;;;3.72;100.00;100100.44;6243196;28;20418;-74
2021/01/19 11:23:28;;;;;;;4.70;2.22;;;;;;;3.80;100.00;100104.44;6247516;28;20103;-74
2021/01/19 11:26:29;;;;;;;9.05;2.35;;;;;;;3.74;100.00;100096.88;6248222;28;20083;-74
2021/01/19 11:29:30;;;;;;;5.13;2.28;;;;;;;3.91;100.00;100091.09;6245636;28;20060;-74
2021/01/19 11:32:31;;;;;;;4.88;2.30;;;;;;;3.85;100.00;100085.25;6249559;28;20449;-75
2021/01/19 11:35:35;;;;;;;2.25;1.65;;;;;;;3.97;100.00;100075.25;6268807;28;20044;-75
2021/01/19 11:38:36;;;;;;;4.05;1.75;;;;;;;3.93;100.00;100076.28;6269124;28;20101;-74
2021/01/19 11:41:38;;;;;;;3.53;1.90;;;;;;;3.86;100.00;100076.53;6250072;28;20046;-74
2021/01/19 11:44:39;;;;;;;4.38;2.20;;;;;;;3.88;100.00;100064.34;6255532;28;20136;-74
2021/01/19 11:47:41;;;;;;;2.88;1.77;;;;;;;3.87;100.00;100057.47;6250537;28;20061;-75
2021/01/19 11:50:42;;;;;;;4.57;1.98;;;;;;;3.91;100.00;100051.25;6249885;28;20482;-74
2021/01/19 11:53:45;;;;;;;1.50;1.40;;;;;;;4.08;100.00;100051.44;6269912;28;20053;-74
2021/01/19 11:56:48;;;;;;;4.25;1.75;;;;;;;4.10;100.00;100054.00;6260260;28;20045;-74
2021/01/19 11:59:49;;;;;;;3.08;1.80;;;;;;;4.13;100.00;100046.91;6256765;28;20053;-75
2021/01/19 12:02:50;;;;;;;2.92;1.55;;;;;;;4.03;100.00;100037.78;6289378;23;20532;-74
2021/01/19 12:05:51;;;;;;;2.70;1.77;;;;;;;4.03;100.00;100029.97;6274451;28;20045;-73
2021/01/19 12:08:53;;;;;;;2.33;1.75;;;;;;;3.99;100.00;100033.59;6274219;28;20052;-75
2021/01/19 12:11:54;;;;;;;2.50;1.92;;;;;;;4.06;100.00;100037.66;6274328;28;20067;-74
2021/01/19 12:14:55;;;;;;;2.05;1.77;;;;;;;4.14;100.00;100024.38;6250527;28;20136;-75
2021/01/19 12:17:57;;;;;;;1.98;1.80;;;;;;;4.09;100.00;100014.16;6249233;28;20065;-76
2021/01/19 12:20:59;;;;;;;2.83;2.20;;;;;;;4.09;100.00;100016.75;6250026;28;20124;-74
2021/01/19 12:24:00;;;;;;;2.88;2.40;;;;;;;4.17;100.00;100011.25;6264950;28;20045;-75
2021/01/19 12:27:01;;;;;;;3.90;2.30;;;;;;;4.13;100.00;100007.06;6263099;28;20604;-73
2021/01/19 12:30:04;;;;;;;3.65;2.65;;;;;;;4.14;100.00;100003.59;6249654;28;20052;-75
2021/01/19 12:33:06;;;;;;;4.90;2.70;;;;;;;4.21;100.00;100000.66;6249393;28;20061;-76
2021/01/19 12:36:07;;;;;;;2.38;2.17;;;;;;;4.28;100.00;99996.09;6248992;28;20049;-77
2021/01/19 12:39:08;;;;;;;4.78;2.47;;;;;;;4.18;100.00;99997.34;6249069;28;20056;-75
2021/01/19 12:42:10;;;;;;;2.78;2.55;;;;;;;4.20;100.00;99995.53;6268436;28;20139;-75
2021/01/19 12:45:12;;;;;;;3.00;2.63;;;;;;;4.30;100.00;99979.50;6262041;28;20045;-74
2021/01/19 12:48:13;;;;;;;5.00;2.95;;;;;;;4.23;100.00;99990.22;6248670;28;20049;-74
2021/01/19 12:51:15;;;;;;;3.60;3.03;;;;;;;4.24;100.00;99984.09;6265850;28;20111;-75
2021/01/19 12:54:16;;;;;;;5.43;3.95;;;;;;;4.15;100.00;100000.06;6243583;28;20037;-77
2021/01/19 12:57:17;;;;;;;4.82;3.80;;;;;;;4.18;100.00;99985.19;6252514;28;20088;-73
2021/01/19 13:00:18;;;;;;;4.50;3.92;;;;;;;4.28;100.00;99975.28;6238016;28;20570;-73
2021/01/19 13:03:20;;;;;;;6.45;4.25;;;;;;;4.25;100.00;99970.19;6223761;28;20057;-76
2021/01/19 13:06:20;;;;;;;5.82;5.22;;;;;;;4.40;100.00;99968.72;6265905;28;20087;-74
2021/01/19 13:09:21;;;;;;;6.30;4.95;;;;;;;4.32;100.00;99966.44;6268674;28;20069;-76
2021/01/19 13:12:24;;;;;;;7.25;5.32;;;;;;;4.32;100.00;99962.09;6272870;28;20064;-75
2021/01/19 13:15:25;;;;;;;5.78;4.75;;;;;;;4.33;100.00;99968.97;6257951;28;20395;-75
2021/01/19 13:18:27;;;;;;;5.05;4.30;;;;;;;4.41;100.00;99965.22;6247584;28;20042;-76
2021/01/19 13:21:28;;;;;;;5.55;4.80;;;;;;;4.44;100.00;99968.53;6247867;28;20050;-75
2021/01/19 13:24:28;;;;;;;5.78;4.80;;;;;;;4.44;100.00;99957.28;6250533;28;20106;-75
2021/01/19 13:27:29;;;;;;;7.65;5.40;;;;;;;4.48;100.00;99967.50;6234373;28;20049;-74
2021/01/19 13:30:30;;;;;;;8.15;5.97;;;;;;;4.50;100.00;99964.84;6247635;28;20462;-75
2021/01/19 13:33:32;;;;;;;7.25;5.78;;;;;;;4.57;100.00;99971.50;6247713;28;20107;-74
2021/01/19 13:36:33;;;;;;;9.68;5.70;;;;;;;4.58;100.00;99962.75;6252857;28;20425;-74
2021/01/19 13:39:34;;;;;;;12.02;6.45;;;;;;;4.58;100.00;99970.56;6271992;28;20064;-74
2021/01/19 13:42:35;;;;;;;8.45;6.40;;;;;;;4.56;100.00;99973.25;6272120;28;20048;-75
2021/01/19 13:45:36;;;;;;;11.02;7.30;;;;;;;4.60;100.00;99970.53;6253672;28;20080;-72
2021/01/19 13:48:37;;;;;;;11.23;7.97;;;;;;;4.64;100.00;99962.53;6253656;28;20045;-74
2021/01/19 13:51:38;;;;;;;10.23;7.75;;;;;;;4.67;100.00;99970.19;6255805;28;20418;-73
2021/01/19 13:54:39;;;;;;;8.70;7.50;;;;;;;4.82;100.00;99973.94;6247486;28;20056;-73
2021/01/19 13:57:40;;;;;;;9.63;8.15;;;;;;;4.82;100.00;99973.94;6247051;28;20049;-73
2021/01/19 14:00:41;;;;;;;10.45;8.02;;;;;;;4.92;100.00;99977.00;6246489;28;20053;-73
2021/01/19 14:03:43;;;;;;;11.05;8.68;;;;;;;4.91;100.00;99980.50;6248111;28;20053;-73
2021/01/19 14:06:45;;;;;;;11.48;9.02;;;;;;;5.06;100.00;99964.22;6269897;28;20056;-72
2021/01/19 14:09:46;;;;;;;11.70;9.52;;;;;;;5.04;100.00;99979.91;6255107;28;20045;-72